Time;durP1;ratioP1;P1;durP2;ratioP2;P2;SDS_P1;SDS_P2;PMS_P1;PMS_P2;Temp;Humidity;BMP_temperature;BMP_pressure;BME280_temperature;BME280_humidity;BME280_pressure;Samples;Min_cycle;Max_cycle;Signal;HPM_P1;HPM_P2
2021/09/22 00:00:55;;;;;;;5.30;4.80;;;;;;;;;;5119857;28;20201;-63
2021/09/22 00:03:23;;;;;;;6.83;4.53;;;;;;;;;;5120651;28;20228;-63
2021/09/22 00:05:53;;;;;;;5.27;4.20;;;;;;;;;;5120359;28;20232;-63
2021/09/22 00:08:21;;;;;;;5.83;4.37;;;;;;;;;;5120111;28;20571;-61
2021/09/22 00:10:49;;;;;;;5.43;4.43;;;;;;;;;;5120148;28;20292;-61
2021/09/22 00:13:17;;;;;;;4.90;4.40;;;;;;;;;;5120239;28;20209;-62
2021/09/22 00:15:45;;;;;;;5.03;4.57;;;;;;;;;;5119533;28;20231;-63
2021/09/22 00:18:13;;;;;;;5.63;4.47;;;;;;;;;;5120296;28;20209;-63
2021/09/22 00:20:41;;;;;;;6.03;5.20;;;;;;;;;;5120086;28;20231;-63
2021/09/22 00:23:10;;;;;;;4.67;4.17;;;;;;;;;;5120229;28;20287;-62
2021/09/22 00:25:38;;;;;;;5.63;4.70;;;;;;;;;;5120138;28;20221;-63
2021/09/22 00:28:07;;;;;;;5.20;4.40;;;;;;;;;;5120061;28;20209;-62
2021/09/22 00:30:35;;;;;;;4.53;4.13;;;;;;;;;;5119773;28;20209;-63
2021/09/22 00:33:03;;;;;;;5.80;4.53;;;;;;;;;;5119530;28;20291;-63
2021/09/22 00:35:31;;;;;;;4.93;4.30;;;;;;;;;;5119678;28;20324;-63
2021/09/22 00:37:59;;;;;;;5.07;4.33;;;;;;;;;;5119952;28;20208;-63
2021/09/22 00:40:29;;;;;;;4.47;4.07;;;;;;;;;;5119516;28;20205;-63
2021/09/22 00:42:57;;;;;;;4.57;4.17;;;;;;;;;;5119728;28;20208;-63
2021/09/22 00:45:25;;;;;;;5.83;4.63;;;;;;;;;;5119351;28;20315;-63
2021/09/22 00:47:53;;;;;;;6.73;4.97;;;;;;;;;;5119547;28;20217;-63
2021/09/22 00:50:21;;;;;;;6.57;4.57;;;;;;;;;;5115930;28;20747;-63
2021/09/22 00:52:49;;;;;;;5.53;5.00;;;;;;;;;;5119361;28;20237;-63
2021/09/22 00:55:17;;;;;;;5.73;5.00;;;;;;;;;;5115300;28;20708;-63
2021/09/22 00:57:50;;;;;;;8.27;4.70;;;;;;;;;;5118340;28;20215;-63
2021/09/22 01:00:18;;;;;;;6.20;4.90;;;;;;;;;;5118989;28;20201;-63
2021/09/22 01:02:48;;;;;;;6.57;5.10;;;;;;;;;;5118816;28;20559;-63
2021/09/22 01:05:17;;;;;;;5.87;4.90;;;;;;;;;;5119127;28;20304;-63
2021/09/22 01:07:46;;;;;;;5.93;4.63;;;;;;;;;;5118973;27;20293;-63
2021/09/22 01:10:14;;;;;;;5.47;4.87;;;;;;;;;;5112758;28;20570;-63
2021/09/22 01:12:42;;;;;;;7.00;5.17;;;;;;;;;;5119201;28;20225;-63
2021/09/22 01:15:12;;;;;;;5.13;4.57;;;;;;;;;;5118571;28;20227;-62
2021/09/22 01:17:40;;;;;;;5.33;4.40;;;;;;;;;;5118870;28;20292;-63
2021/09/22 01:20:09;;;;;;;6.20;5.10;;;;;;;;;;5118962;28;20219;-63
2021/09/22 01:22:38;;;;;;;5.33;4.83;;;;;;;;;;5119123;28;20279;-63
2021/09/22 01:25:06;;;;;;;7.23;5.00;;;;;;;;;;5121933;27;20220;-63
2021/09/22 01:27:34;;;;;;;5.67;4.70;;;;;;;;;;5139429;27;20204;-63
2021/09/22 01:30:02;;;;;;;6.20;5.50;;;;;;;;;;5139200;27;20204;-63
2021/09/22 01:32:30;;;;;;;7.70;4.80;;;;;;;;;;5139107;27;20224;-63
2021/09/22 01:34:58;;;;;;;6.23;5.10;;;;;;;;;;5139269;27;20230;-63
2021/09/22 01:37:26;;;;;;;6.40;5.37;;;;;;;;;;5139464;27;20214;-61
2021/09/22 01:39:56;;;;;;;5.60;5.10;;;;;;;;;;5139026;27;20208;-61
2021/09/22 01:42:24;;;;;;;5.77;5.17;;;;;;;;;;5139364;27;20207;-61
2021/09/22 01:44:52;;;;;;;5.60;4.93;;;;;;;;;;5138712;27;20729;-60
2021/09/22 01:47:20;;;;;;;7.10;5.27;;;;;;;;;;5138909;27;20205;-60
2021/09/22 01:49:48;;;;;;;7.17;5.00;;;;;;;;;;5131381;27;20326;-62
2021/09/22 01:52:16;;;;;;;6.07;5.47;;;;;;;;;;5118223;28;20234;-61
2021/09/22 01:54:44;;;;;;;6.30;5.70;;;;;;;;;;5118363;28;20221;-61
2021/09/22 01:57:13;;;;;;;6.90;5.77;;;;;;;;;;5118558;28;20208;-60
2021/09/22 01:59:41;;;;;;;6.97;5.80;;;;;;;;;;5118006;28;20207;-62
2021/09/22 02:02:09;;;;;;;7.63;5.83;;;;;;;;;;5117747;28;20205;-61
2021/09/22 02:04:38;;;;;;;7.70;5.63;;;;;;;;;;5105789;28;20231;-61
2021/09/22 02:07:06;;;;;;;6.77;5.90;;;;;;;;;;5118015;28;20236;-61
2021/09/22 02:09:34;;;;;;;7.77;6.23;;;;;;;;;;5117780;28;20207;-62
2021/09/22 02:12:02;;;;;;;7.93;5.90;;;;;;;;;;5117947;28;20815;-62
2021/09/22 02:14:31;;;;;;;7.13;5.47;;;;;;;;;;5117995;28;20228;-62
2021/09/22 02:16:59;;;;;;;8.23;6.77;;;;;;;;;;5117861;28;20321;-62
2021/09/22 02:19:28;;;;;;;6.50;5.73;;;;;;;;;;5117981;28;20237;-61
2021/09/22 02:21:57;;;;;;;9.10;6.37;;;;;;;;;;5118247;28;20215;-62
2021/09/22 02:24:25;;;;;;;7.07;6.30;;;;;;;;;;5117801;28;20247;-62
2021/09/22 02:26:53;;;;;;;7.60;6.23;;;;;;;;;;5118146;28;20213;-62
2021/09/22 02:29:21;;;;;;;8.07;6.20;;;;;;;;;;5117823;28;20207;-62
2021/09/22 02:31:50;;;;;;;6.90;6.20;;;;;;;;;;5117940;28;20205;-62
2021/09/22 02:34:18;;;;;;;7.40;6.60;;;;;;;;;;5118007;28;20231;-62
2021/09/22 02:36:46;;;;;;;8.67;6.60;;;;;;;;;;5117802;28;20211;-62
2021/09/22 02:39:14;;;;;;;9.63;6.40;;;;;;;;;;5117777;28;20208;-62
2021/09/22 02:41:42;;;;;;;8.67;7.10;;;;;;;;;;5118155;28;20208;-62
2021/09/22 02:44:10;;;;;;;7.30;6.07;;;;;;;;;;5117264;28;20603;-61
2021/09/22 02:46:38;;;;;;;7.97;6.10;;;;;;;;;;5117715;28;20215;-61
2021/09/22 02:49:08;;;;;;;9.13;6.87;;;;;;;;;;5117766;28;20578;-62
2021/09/22 02:51:36;;;;;;;9.07;6.73;;;;;;;;;;5104124;28;20667;-62
2021/09/22 02:54:04;;;;;;;7.97;6.83;;;;;;;;;;5117754;28;20233;-61
2021/09/22 02:56:32;;;;;;;9.90;6.90;;;;;;;;;;5117588;28;20216;-62
2021/09/22 02:59:01;;;;;;;10.10;7.27;;;;;;;;;;5117455;28;20209;-62
2021/09/22 03:01:29;;;;;;;8.87;7.10;;;;;;;;;;5117843;28;20286;-61
2021/09/22 03:03:57;;;;;;;8.77;6.73;;;;;;;;;;5117715;28;20224;-62
2021/09/22 03:06:27;;;;;;;7.77;6.80;;;;;;;;;;5117474;28;20232;-61
2021/09/22 03:08:55;;;;;;;7.87;6.50;;;;;;;;;;5117530;28;20205;-62
2021/09/22 03:11:24;;;;;;;8.77;6.97;;;;;;;;;;5117913;28;20292;-62
2021/09/22 03:13:52;;;;;;;10.33;7.10;;;;;;;;;;5117592;28;20229;-61
2021/09/22 03:16:20;;;;;;;8.60;7.00;;;;;;;;;;5117561;28;20208;-61
2021/09/22 03:18:48;;;;;;;9.03;7.30;;;;;;;;;;5117467;28;20212;-61
2021/09/22 03:21:16;;;;;;;7.90;7.10;;;;;;;;;;5118407;28;20201;-62
2021/09/22 03:23:45;;;;;;;8.10;6.87;;;;;;;;;;5121083;28;20766;-62
2021/09/22 03:26:13;;;;;;;11.33;7.33;;;;;;;;;;5121320;28;20265;-61
2021/09/22 03:28:41;;;;;;;9.90;7.63;;;;;;;;;;5121123;28;20664;-62
2021/09/22 03:31:09;;;;;;;8.50;7.03;;;;;;;;;;5120659;28;20208;-62
2021/09/22 03:33:38;;;;;;;8.77;6.90;;;;;;;;;;5121025;28;20217;-62
2021/09/22 03:36:05;;;;;;;8.13;6.83;;;;;;;;;;5120884;28;20208;-62
2021/09/22 03:38:34;;;;;;;11.20;7.47;;;;;;;;;;5107767;28;20204;-62
2021/09/22 03:41:04;;;;;;;9.70;7.70;;;;;;;;;;5120519;28;20204;-62
2021/09/22 03:43:32;;;;;;;9.80;6.87;;;;;;;;;;5120772;28;20212;-62
2021/09/22 03:46:00;;;;;;;9.37;7.47;;;;;;;;;;5120465;28;20203;-62
2021/09/22 03:48:28;;;;;;;10.27;7.60;;;;;;;;;;5121038;28;20200;-62
2021/09/22 03:50:56;;;;;;;8.90;6.90;;;;;;;;;;5120689;28;20212;-61
2021/09/22 03:53:24;;;;;;;10.07;7.40;;;;;;;;;;5120489;28;20778;-62
2021/09/22 03:55:52;;;;;;;9.53;7.13;;;;;;;;;;5120527;28;20209;-62
2021/09/22 03:58:22;;;;;;;11.37;7.30;;;;;;;;;;5120356;28;20205;-60
2021/09/22 04:00:50;;;;;;;9.70;7.63;;;;;;;;;;5120281;28;20211;-62
2021/09/22 04:03:18;;;;;;;9.57;7.30;;;;;;;;;;5120573;27;20252;-61
2021/09/22 04:05:47;;;;;;;9.63;7.70;;;;;;;;;;5120192;28;20224;-62
2021/09/22 04:08:15;;;;;;;9.80;7.87;;;;;;;;;;5120703;28;20213;-62
2021/09/22 04:10:43;;;;;;;10.57;6.87;;;;;;;;;;5120325;27;20566;-61
2021/09/22 04:13:11;;;;;;;11.57;8.13;;;;;;;;;;5120361;28;20250;-59
2021/09/22 04:15:40;;;;;;;10.90;7.43;;;;;;;;;;5120000;28;20227;-61
2021/09/22 04:18:08;;;;;;;8.57;7.30;;;;;;;;;;5120170;28;20204;-61
2021/09/22 04:20:36;;;;;;;8.60;7.03;;;;;;;;;;5120175;28;20664;-61
2021/09/22 04:23:04;;;;;;;10.70;7.10;;;;;;;;;;5120293;28;20205;-61
2021/09/22 04:25:32;;;;;;;8.53;7.47;;;;;;;;;;5119631;28;20225;-61
2021/09/22 04:28:00;;;;;;;9.30;8.07;;;;;;;;;;5120114;28;20205;-61
2021/09/22 04:30:29;;;;;;;9.50;7.47;;;;;;;;;;5119931;27;20211;-61
2021/09/22 04:32:58;;;;;;;10.47;8.20;;;;;;;;;;5119792;28;20204;-61
2021/09/22 04:35:26;;;;;;;9.73;7.37;;;;;;;;;;5119880;28;20228;-61
2021/09/22 04:37:54;;;;;;;10.07;7.57;;;;;;;;;;5119965;28;20209;-61
2021/09/22 04:40:23;;;;;;;13.57;8.10;;;;;;;;;;5119709;28;20606;-61
2021/09/22 04:42:51;;;;;;;10.17;7.47;;;;;;;;;;5119504;27;20731;-61
2021/09/22 04:45:20;;;;;;;9.57;7.97;;;;;;;;;;5119506;28;20691;-61
2021/09/22 04:47:48;;;;;;;12.00;9.20;;;;;;;;;;5119233;28;20211;-63
2021/09/22 04:50:18;;;;;;;11.27;8.47;;;;;;;;;;5119378;28;20204;-63
2021/09/22 04:52:46;;;;;;;11.90;7.37;;;;;;;;;;5119409;28;20254;-63
2021/09/22 04:55:14;;;;;;;10.93;8.37;;;;;;;;;;5119272;28;20771;-63
2021/09/22 04:57:42;;;;;;;9.87;8.30;;;;;;;;;;5119147;28;20208;-63
2021/09/22 05:00:10;;;;;;;11.60;9.10;;;;;;;;;;5119178;28;20292;-63
2021/09/22 05:02:39;;;;;;;10.47;8.50;;;;;;;;;;5119220;28;20203;-63
2021/09/22 05:05:08;;;;;;;9.60;8.20;;;;;;;;;;5119332;28;20217;-63
2021/09/22 05:07:37;;;;;;;9.53;7.90;;;;;;;;;;5118877;28;20296;-61
2021/09/22 05:10:06;;;;;;;14.43;7.87;;;;;;;;;;5119380;28;20207;-62
2021/09/22 05:12:34;;;;;;;11.27;8.47;;;;;;;;;;5118925;28;20542;-63
2021/09/22 05:15:02;;;;;;;12.53;9.13;;;;;;;;;;5118542;28;20307;-62
2021/09/22 05:17:30;;;;;;;11.93;8.30;;;;;;;;;;5119019;27;20204;-62
2021/09/22 05:19:58;;;;;;;14.50;8.47;;;;;;;;;;5119096;28;20211;-62
2021/09/22 05:22:26;;;;;;;11.93;8.27;;;;;;;;;;5118674;28;20215;-62
2021/09/22 05:24:55;;;;;;;12.80;8.93;;;;;;;;;;5118893;28;20223;-63
2021/09/22 05:27:23;;;;;;;12.77;9.07;;;;;;;;;;5118728;28;20231;-63
2021/09/22 05:29:51;;;;;;;13.37;8.93;;;;;;;;;;5118472;28;20208;-62
2021/09/22 05:32:19;;;;;;;15.50;9.17;;;;;;;;;;5118497;28;20295;-63
2021/09/22 05:34:48;;;;;;;14.03;9.93;;;;;;;;;;5118421;28;20719;-63
2021/09/22 05:37:16;;;;;;;12.83;8.93;;;;;;;;;;5118723;28;20682;-62
2021/09/22 05:39:44;;;;;;;10.97;8.37;;;;;;;;;;5118866;27;20209;-63
2021/09/22 05:42:14;;;;;;;11.30;8.73;;;;;;;;;;5118746;28;20213;-63
2021/09/22 05:44:42;;;;;;;16.00;9.73;;;;;;;;;;5117662;28;20695;-63
2021/09/22 05:47:10;;;;;;;12.33;8.77;;;;;;;;;;5118403;28;20200;-63
2021/09/22 05:49:38;;;;;;;13.17;9.70;;;;;;;;;;5118057;28;20209;-63
2021/09/22 05:52:06;;;;;;;17.33;10.73;;;;;;;;;;5118764;28;20215;-62
2021/09/22 05:54:34;;;;;;;13.70;9.37;;;;;;;;;;5118255;28;20231;-63
2021/09/22 05:57:02;;;;;;;13.00;9.83;;;;;;;;;;5118307;28;20208;-63
2021/09/22 05:59:31;;;;;;;11.73;9.97;;;;;;;;;;5118006;28;20209;-62
2021/09/22 06:01:59;;;;;;;21.43;14.03;;;;;;;;;;5118273;28;20215;-63
2021/09/22 06:04:28;;;;;;;18.63;9.53;;;;;;;;;;5118468;28;20269;-63
2021/09/22 06:06:56;;;;;;;12.17;9.67;;;;;;;;;;5118081;28;20247;-63
2021/09/22 06:09:24;;;;;;;14.87;9.67;;;;;;;;;;5118223;28;20671;-63
2021/09/22 06:11:52;;;;;;;14.30;10.10;;;;;;;;;;5118090;28;20638;-63
2021/09/22 06:14:20;;;;;;;13.20;9.93;;;;;;;;;;5117572;28;20228;-63
2021/09/22 06:16:49;;;;;;;14.33;9.70;;;;;;;;;;5117969;28;20208;-63
2021/09/22 06:19:17;;;;;;;13.37;9.33;;;;;;;;;;5118156;28;20230;-63
2021/09/22 06:21:45;;;;;;;14.07;10.30;;;;;;;;;;5118102;28;20209;-63
2021/09/22 06:24:33;;;;;;;14.13;10.07;;;;;;;;;;5118105;28;20216;-62
2021/09/22 06:27:01;;;;;;;12.93;9.13;;;;;;;;;;5117881;28;20204;-63
2021/09/22 06:29:29;;;;;;;15.27;10.20;;;;;;;;;;5117866;28;20204;-63
2021/09/22 06:31:59;;;;;;;12.70;9.57;;;;;;;;;;5117649;28;20215;-63
2021/09/22 06:34:27;;;;;;;17.33;10.10;;;;;;;;;;5117701;28;20687;-63
2021/09/22 06:36:55;;;;;;;13.43;9.70;;;;;;;;;;5118200;27;20208;-62
2021/09/22 06:39:23;;;;;;;14.33;10.37;;;;;;;;;;5117808;28;20200;-63
2021/09/22 06:41:51;;;;;;;18.67;12.50;;;;;;;;;;5118017;28;20207;-63
2021/09/22 06:44:19;;;;;;;15.70;10.80;;;;;;;;;;5117506;28;20234;-63
2021/09/22 06:46:47;;;;;;;15.50;10.07;;;;;;;;;;5117795;28;20207;-63
2021/09/22 06:49:16;;;;;;;14.87;9.97;;;;;;;;;;5117589;28;20213;-63
2021/09/22 06:51:44;;;;;;;14.80;10.37;;;;;;;;;;5117656;28;20703;-62
2021/09/22 06:54:15;;;;;;;14.53;10.10;;;;;;;;;;5117206;28;20581;-63
2021/09/22 06:56:44;;;;;;;12.50;9.27;;;;;;;;;;5118946;28;20233;-62
2021/09/22 06:59:12;;;;;;;15.17;9.93;;;;;;;;;;5121181;28;20233;-63
2021/09/22 07:01:41;;;;;;;14.00;9.90;;;;;;;;;;5121528;28;20584;-62
2021/09/22 07:04:09;;;;;;;15.00;10.37;;;;;;;;;;5121446;28;20221;-63
2021/09/22 07:06:39;;;;;;;14.63;10.30;;;;;;;;;;5121277;28;20580;-62
2021/09/22 07:09:07;;;;;;;16.53;10.63;;;;;;;;;;5121769;28;20215;-63
2021/09/22 07:11:35;;;;;;;15.53;10.33;;;;;;;;;;5121405;28;20288;-63
2021/09/22 07:14:03;;;;;;;15.57;9.70;;;;;;;;;;5120905;28;20231;-63
2021/09/22 07:16:31;;;;;;;15.23;9.83;;;;;;;;;;5120994;28;20256;-63
2021/09/22 07:18:59;;;;;;;13.87;10.13;;;;;;;;;;5121311;28;20211;-63
2021/09/22 07:21:27;;;;;;;17.07;9.50;;;;;;;;;;5121182;28;20205;-63
2021/09/22 07:23:57;;;;;;;16.83;9.83;;;;;;;;;;5121335;28;20229;-63
2021/09/22 07:26:25;;;;;;;13.93;9.53;;;;;;;;;;5121213;28;20201;-63
2021/09/22 07:28:53;;;;;;;15.93;10.23;;;;;;;;;;5121026;28;20205;-63
2021/09/22 07:31:21;;;;;;;13.30;9.47;;;;;;;;;;5121150;28;20225;-63
2021/09/22 07:33:49;;;;;;;13.90;10.43;;;;;;;;;;5120924;28;20312;-63
2021/09/22 07:36:17;;;;;;;12.60;9.27;;;;;;;;;;5121008;28;20232;-63
2021/09/22 07:38:45;;;;;;;13.87;10.47;;;;;;;;;;5121144;27;20221;-63
2021/09/22 07:41:14;;;;;;;12.87;9.80;;;;;;;;;;5120924;28;20242;-63
2021/09/22 07:43:42;;;;;;;14.67;9.77;;;;;;;;;;5120718;28;20205;-63
2021/09/22 07:46:10;;;;;;;16.93;9.83;;;;;;;;;;5120756;28;20211;-62
2021/09/22 07:48:39;;;;;;;14.30;10.57;;;;;;;;;;5121024;28;20288;-63
2021/09/22 07:51:07;;;;;;;11.70;9.50;;;;;;;;;;5120587;27;20201;-63
2021/09/22 07:53:35;;;;;;;11.87;9.00;;;;;;;;;;5120567;28;20219;-63
2021/09/22 07:56:04;;;;;;;12.63;9.20;;;;;;;;;;5120704;28;20224;-63
2021/09/22 07:58:34;;;;;;;13.73;10.23;;;;;;;;;;5120523;28;20212;-63
2021/09/22 08:01:02;;;;;;;12.73;9.50;;;;;;;;;;5120444;28;20283;-63
2021/09/22 08:03:31;;;;;;;12.87;9.67;;;;;;;;;;5120147;28;20635;-63
2021/09/22 08:05:59;;;;;;;11.30;9.10;;;;;;;;;;5120039;28;20236;-63
2021/09/22 08:08:27;;;;;;;13.17;9.30;;;;;;;;;;5119960;28;20207;-63
2021/09/22 08:10:55;;;;;;;20.00;10.23;;;;;;;;;;5119974;28;20645;-63
2021/09/22 08:13:23;;;;;;;13.90;9.83;;;;;;;;;;5120521;28;20289;-63
2021/09/22 08:15:53;;;;;;;12.27;9.17;;;;;;;;;;5119820;28;20229;-63
2021/09/22 08:18:21;;;;;;;16.67;10.03;;;;;;;;;;5120045;28;20205;-63
2021/09/22 08:20:49;;;;;;;12.20;9.17;;;;;;;;;;5120215;28;20212;-63
2021/09/22 08:23:17;;;;;;;14.03;9.93;;;;;;;;;;5120275;27;20205;-63
2021/09/22 08:25:45;;;;;;;12.97;8.90;;;;;;;;;;5120205;28;20219;-63
2021/09/22 08:28:13;;;;;;;13.73;8.73;;;;;;;;;;5120002;27;20200;-63
2021/09/22 08:30:41;;;;;;;11.80;9.20;;;;;;;;;;5119503;28;20223;-63
2021/09/22 08:33:10;;;;;;;12.53;9.83;;;;;;;;;;5119869;28;20296;-63
2021/09/22 08:35:38;;;;;;;11.23;8.27;;;;;;;;;;5119762;28;20718;-63
2021/09/22 08:38:06;;;;;;;13.40;9.13;;;;;;;;;;5119562;28;20208;-63
2021/09/22 08:40:34;;;;;;;13.47;9.17;;;;;;;;;;5119958;28;20215;-63
2021/09/22 08:43:03;;;;;;;13.40;9.63;;;;;;;;;;5119808;28;20240;-63
2021/09/22 08:45:33;;;;;;;13.10;9.63;;;;;;;;;;5119568;27;20261;-63
2021/09/22 08:48:01;;;;;;;11.90;9.13;;;;;;;;;;5119435;28;20294;-63
2021/09/22 08:50:31;;;;;;;11.90;8.93;;;;;;;;;;5119513;28;20656;-63
2021/09/22 08:53:06;;;;;;;18.87;9.90;;;;;;;;;;5119606;28;20204;-63
2021/09/22 08:55:34;;;;;;;11.20;8.80;;;;;;;;;;5119370;28;20289;-61
2021/09/22 08:58:03;;;;;;;12.40;9.97;;;;;;;;;;5118920;28;20672;-62
2021/09/22 09:00:31;;;;;;;11.57;9.53;;;;;;;;;;5119066;28;20272;-62
2021/09/22 09:02:59;;;;;;;12.73;9.80;;;;;;;;;;5118995;28;20224;-62
2021/09/22 09:05:27;;;;;;;12.00;10.03;;;;;;;;;;5119087;28;20669;-62
2021/09/22 09:07:57;;;;;;;13.10;9.07;;;;;;;;;;5119363;28;20232;-62
2021/09/22 09:10:26;;;;;;;12.67;9.93;;;;;;;;;;5119176;28;20215;-62
2021/09/22 09:12:58;;;;;;;12.37;9.30;;;;;;;;;;5118937;28;20215;-62
2021/09/22 09:15:33;;;;;;;14.33;9.60;;;;;;;;;;5118662;28;20225;-62
2021/09/22 09:18:02;;;;;;;14.70;10.00;;;;;;;;;;5118614;28;20215;-62
2021/09/22 09:20:31;;;;;;;13.03;9.90;;;;;;;;;;5117992;28;20215;-62
2021/09/22 09:23:08;;;;;;;12.80;9.50;;;;;;;;;;5118592;28;20686;-62
2021/09/22 09:25:38;;;;;;;13.57;9.33;;;;;;;;;;5112739;28;20279;-62
2021/09/22 09:28:25;;;;;;;13.50;9.13;;;;;;;;;;5118735;28;20201;-63
2021/09/22 09:30:55;;;;;;;14.17;10.13;;;;;;;;;;5118491;28;20201;-62
2021/09/22 09:33:33;;;;;;;12.53;9.30;;;;;;;;;;5118313;28;20207;-62
2021/09/22 09:36:13;;;;;;;12.83;9.43;;;;;;;;;;5118589;28;20311;-61
2021/09/22 09:38:46;;;;;;;12.37;9.40;;;;;;;;;;5118983;28;20208;-61
2021/09/22 09:41:22;;;;;;;13.77;10.50;;;;;;;;;;5118619;28;20219;-62
2021/09/22 09:43:50;;;;;;;14.10;9.00;;;;;;;;;;5118438;28;20228;-62
2021/09/22 09:46:22;;;;;;;19.77;10.13;;;;;;;;;;5118284;28;20231;-62
2021/09/22 09:49:08;;;;;;;13.60;9.73;;;;;;;;;;5118616;28;20215;-62
2021/09/22 09:51:38;;;;;;;56.13;16.90;;;;;;;;;;5105862;28;20240;-62
2021/09/22 09:54:08;;;;;;;40.73;14.23;;;;;;;;;;5118289;27;20231;-62
2021/09/22 09:56:36;;;;;;;12.00;9.90;;;;;;;;;;5118496;28;20256;-62
2021/09/22 09:59:05;;;;;;;13.37;9.77;;;;;;;;;;5118057;28;20204;-62
2021/09/22 10:01:40;;;;;;;13.17;9.80;;;;;;;;;;5118592;28;20206;-62
2021/09/22 10:04:09;;;;;;;12.03;9.53;;;;;;;;;;5118244;28;20224;-62
2021/09/22 10:06:37;;;;;;;14.83;9.63;;;;;;;;;;5118226;28;20277;-62
2021/09/22 10:09:06;;;;;;;14.27;9.90;;;;;;;;;;5118358;28;20209;-62
2021/09/22 10:11:36;;;;;;;11.07;8.73;;;;;;;;;;5118276;28;20204;-62
2021/09/22 10:14:05;;;;;;;10.43;8.83;;;;;;;;;;5117649;28;20227;-62
2021/09/22 10:16:34;;;;;;;12.37;9.77;;;;;;;;;;5118033;28;20282;-63
2021/09/22 10:19:02;;;;;;;12.37;8.83;;;;;;;;;;5117975;28;20564;-62
2021/09/22 10:21:31;;;;;;;11.57;9.40;;;;;;;;;;5118136;28;20205;-62
2021/09/22 10:23:59;;;;;;;13.90;9.13;;;;;;;;;;5118291;28;20229;-62
2021/09/22 10:26:28;;;;;;;11.67;9.20;;;;;;;;;;5118388;28;20232;-62
2021/09/22 10:29:00;;;;;;;10.80;9.00;;;;;;;;;;5117578;28;20254;-62
2021/09/22 10:31:36;;;;;;;12.53;9.53;;;;;;;;;;5120848;28;20211;-63
2021/09/22 10:34:05;;;;;;;13.67;9.97;;;;;;;;;;5122316;28;20228;-62
2021/09/22 10:36:34;;;;;;;12.13;8.90;;;;;;;;;;5122096;27;20757;-62
2021/09/22 10:39:03;;;;;;;12.13;9.23;;;;;;;;;;5122023;28;20226;-62
2021/09/22 10:41:33;;;;;;;12.33;9.53;;;;;;;;;;5122053;28;20211;-62
2021/09/22 10:44:03;;;;;;;10.77;8.50;;;;;;;;;;5121693;28;20737;-63
2021/09/22 10:46:31;;;;;;;13.13;9.37;;;;;;;;;;5122081;28;20284;-62
2021/09/22 10:49:02;;;;;;;13.13;8.53;;;;;;;;;;5122198;28;20251;-62
2021/09/22 10:51:31;;;;;;;11.70;9.33;;;;;;;;;;5121969;28;20215;-62
2021/09/22 10:54:07;;;;;;;12.23;9.73;;;;;;;;;;5121826;28;20245;-62
2021/09/22 10:56:35;;;;;;;16.47;9.73;;;;;;;;;;5121818;28;20220;-63
2021/09/22 10:59:06;;;;;;;14.93;9.53;;;;;;;;;;5121235;27;20678;-62
2021/09/22 11:01:50;;;;;;;13.00;9.40;;;;;;;;;;5121842;28;20264;-63
2021/09/22 11:04:18;;;;;;;14.13;9.77;;;;;;;;;;5121394;28;20696;-62
2021/09/22 11:06:59;;;;;;;16.13;10.63;;;;;;;;;;5121534;28;20592;-62
2021/09/22 11:09:29;;;;;;;16.83;10.07;;;;;;;;;;5121751;28;20292;-63
2021/09/22 11:12:13;;;;;;;14.70;9.50;;;;;;;;;;5121309;27;20292;-62
2021/09/22 11:14:43;;;;;;;12.20;9.60;;;;;;;;;;5121407;28;20224;-62
2021/09/22 11:17:13;;;;;;;14.50;10.37;;;;;;;;;;5121099;28;20273;-62
2021/09/22 11:19:42;;;;;;;13.10;9.80;;;;;;;;;;5121625;28;20278;-62
2021/09/22 11:22:11;;;;;;;13.43;10.13;;;;;;;;;;5121498;27;20204;-62
2021/09/22 11:24:41;;;;;;;13.80;9.93;;;;;;;;;;5120806;27;20308;-62
2021/09/22 11:27:10;;;;;;;12.83;9.80;;;;;;;;;;5107629;28;20664;-62
2021/09/22 11:29:40;;;;;;;13.63;10.40;;;;;;;;;;5120558;28;20577;-62
2021/09/22 11:32:26;;;;;;;13.43;9.80;;;;;;;;;;5121350;28;20213;-62
2021/09/22 11:34:55;;;;;;;15.90;9.20;;;;;;;;;;5121097;28;20304;-62
2021/09/22 11:37:27;;;;;;;14.93;10.83;;;;;;;;;;5121042;28;20228;-63
2021/09/22 11:39:55;;;;;;;13.03;10.87;;;;;;;;;;5120154;28;20200;-63
2021/09/22 11:42:26;;;;;;;12.80;10.23;;;;;;;;;;5119325;28;20286;-62
2021/09/22 11:44:54;;;;;;;15.60;10.83;;;;;;;;;;5120358;28;20227;-62
2021/09/22 11:47:24;;;;;;;13.10;10.37;;;;;;;;;;5120681;28;20205;-62
2021/09/22 11:49:52;;;;;;;13.43;9.77;;;;;;;;;;5120753;28;20283;-61
2021/09/22 11:52:20;;;;;;;14.77;9.53;;;;;;;;;;5120590;28;20212;-60
2021/09/22 11:54:53;;;;;;;12.13;9.13;;;;;;;;;;5120562;28;20290;-62
2021/09/22 11:57:21;;;;;;;12.67;8.67;;;;;;;;;;5120393;27;20692;-62
2021/09/22 11:59:49;;;;;;;9.77;7.97;;;;;;;;;;5120500;27;20209;-63
2021/09/22 12:02:17;;;;;;;11.20;9.10;;;;;;;;;;5120321;28;20540;-64
2021/09/22 12:04:48;;;;;;;13.73;8.73;;;;;;;;;;5120384;28;20228;-61
2021/09/22 12:07:16;;;;;;;12.37;9.63;;;;;;;;;;5120028;28;20232;-61
2021/09/22 12:09:46;;;;;;;12.90;9.17;;;;;;;;;;5120445;28;20216;-62
2021/09/22 12:12:15;;;;;;;12.13;9.13;;;;;;;;;;5120241;28;20209;-63
2021/09/22 12:14:48;;;;;;;11.77;9.17;;;;;;;;;;5120032;28;20273;-61
2021/09/22 12:17:17;;;;;;;11.03;8.37;;;;;;;;;;5120233;27;20212;-61
2021/09/22 12:19:46;;;;;;;11.70;8.97;;;;;;;;;;5120290;28;20656;-62
2021/09/22 12:22:16;;;;;;;10.37;8.67;;;;;;;;;;5120363;28;20268;-61
2021/09/22 12:24:45;;;;;;;10.20;8.60;;;;;;;;;;5119962;28;20684;-61
2021/09/22 12:27:14;;;;;;;11.87;8.83;;;;;;;;;;5106933;28;20236;-61
2021/09/22 12:30:07;;;;;;;10.23;9.13;;;;;;;;;;5119602;28;20215;-61
2021/09/22 12:32:36;;;;;;;11.20;8.57;;;;;;;;;;5104913;28;20290;-61
2021/09/22 12:35:06;;;;;;;10.60;8.43;;;;;;;;;;5120000;28;20227;-62
2021/09/22 12:37:35;;;;;;;12.43;8.70;;;;;;;;;;5119559;28;20303;-61
2021/09/22 12:40:04;;;;;;;12.23;8.90;;;;;;;;;;5119866;28;20204;-61
2021/09/22 12:42:40;;;;;;;12.50;8.63;;;;;;;;;;5120064;28;20216;-63
2021/09/22 12:45:09;;;;;;;11.00;8.03;;;;;;;;;;5119557;28;20224;-61
2021/09/22 12:47:48;;;;;;;9.23;7.40;;;;;;;;;;5119720;28;20283;-63
2021/09/22 12:50:17;;;;;;;10.03;7.20;;;;;;;;;;5119515;28;20205;-63
2021/09/22 12:52:48;;;;;;;8.70;7.70;;;;;;;;;;5119719;28;20288;-63
2021/09/22 12:55:19;;;;;;;9.20;8.13;;;;;;;;;;5119703;28;20311;-63
2021/09/22 12:57:51;;;;;;;9.73;7.37;;;;;;;;;;5119603;27;20231;-61
2021/09/22 13:00:35;;;;;;;9.60;8.00;;;;;;;;;;5119318;28;20243;-62
2021/09/22 13:03:17;;;;;;;11.70;7.57;;;;;;;;;;5119391;28;20193;-64
2021/09/22 13:05:46;;;;;;;13.17;8.53;;;;;;;;;;5119219;28;20307;-61
2021/09/22 13:08:16;;;;;;;11.73;8.40;;;;;;;;;;5119234;28;20215;-61
2021/09/22 13:10:51;;;;;;;12.07;8.67;;;;;;;;;;5117488;28;20652;-61
2021/09/22 13:13:19;;;;;;;10.53;8.23;;;;;;;;;;5119087;28;20196;-61
2021/09/22 13:15:47;;;;;;;9.67;7.57;;;;;;;;;;5118653;28;20217;-61
2021/09/22 13:18:16;;;;;;;13.30;9.37;;;;;;;;;;5119011;28;20220;-61
2021/09/22 13:20:44;;;;;;;12.00;8.80;;;;;;;;;;5118475;28;20196;-63
2021/09/22 13:23:21;;;;;;;10.53;7.80;;;;;;;;;;5118966;28;20228;-63
2021/09/22 13:25:49;;;;;;;8.13;7.33;;;;;;;;;;5118765;28;20223;-64
2021/09/22 13:28:17;;;;;;;12.10;8.10;;;;;;;;;;5118422;28;20197;-63
2021/09/22 13:30:45;;;;;;;10.27;7.93;;;;;;;;;;5118446;28;20682;-63
2021/09/22 13:33:13;;;;;;;10.07;8.27;;;;;;;;;;5118525;28;20208;-63
2021/09/22 13:35:41;;;;;;;10.57;7.90;;;;;;;;;;5118605;28;20224;-63
2021/09/22 13:38:10;;;;;;;8.33;7.27;;;;;;;;;;5118726;28;20237;-64
2021/09/22 13:40:39;;;;;;;13.83;7.97;;;;;;;;;;5118653;28;20204;-63
2021/09/22 13:43:07;;;;;;;11.20;7.37;;;;;;;;;;5118758;28;20235;-63
2021/09/22 13:45:35;;;;;;;11.93;7.80;;;;;;;;;;5118056;28;20703;-63
2021/09/22 13:48:04;;;;;;;7.80;6.27;;;;;;;;;;5118588;28;20201;-63
2021/09/22 13:50:32;;;;;;;11.27;7.83;;;;;;;;;;5118271;28;20612;-62
2021/09/22 13:53:00;;;;;;;7.97;6.57;;;;;;;;;;5118428;28;20201;-63
2021/09/22 13:55:28;;;;;;;8.73;7.50;;;;;;;;;;5118372;28;20274;-63
2021/09/22 13:57:58;;;;;;;10.37;6.67;;;;;;;;;;5118097;28;20538;-63
2021/09/22 14:00:26;;;;;;;10.07;7.53;;;;;;;;;;5118127;28;20205;-63
2021/09/22 14:02:55;;;;;;;11.27;9.10;;;;;;;;;;5117865;28;20241;-62
2021/09/22 14:05:23;;;;;;;8.33;7.23;;;;;;;;;;5117776;28;20224;-63
2021/09/22 14:07:51;;;;;;;10.53;8.10;;;;;;;;;;5117899;27;20268;-63
2021/09/22 14:10:19;;;;;;;9.63;8.40;;;;;;;;;;5117511;28;20521;-63
2021/09/22 14:12:48;;;;;;;8.37;7.57;;;;;;;;;;5118335;28;20220;-63
2021/09/22 14:15:18;;;;;;;7.10;6.30;;;;;;;;;;5117460;28;20252;-64
2021/09/22 14:17:46;;;;;;;7.13;6.43;;;;;;;;;;5118255;28;20200;-63
2021/09/22 14:20:14;;;;;;;8.57;6.07;;;;;;;;;;5118040;28;20338;-61
2021/09/22 14:22:42;;;;;;;6.73;5.70;;;;;;;;;;5118189;28;20714;-63
2021/09/22 14:25:12;;;;;;;6.37;5.10;;;;;;;;;;5117769;28;20232;-63
2021/09/22 14:27:40;;;;;;;7.07;6.00;;;;;;;;;;5118222;28;20213;-63
2021/09/22 14:30:08;;;;;;;11.57;6.80;;;;;;;;;;5117656;28;20209;-63
2021/09/22 14:32:38;;;;;;;8.33;5.67;;;;;;;;;;5118201;28;20213;-63
2021/09/22 14:35:06;;;;;;;7.60;5.67;;;;;;;;;;5118130;28;20309;-64
2021/09/22 14:37:34;;;;;;;7.07;5.80;;;;;;;;;;5118174;28;20258;-64
2021/09/22 14:40:03;;;;;;;7.30;6.07;;;;;;;;;;5118070;28;20285;-63
2021/09/22 14:42:32;;;;;;;7.83;5.50;;;;;;;;;;5118094;28;20208;-63
2021/09/22 14:45:00;;;;;;;6.50;5.90;;;;;;;;;;5117607;28;20372;-63